createdAt,value
2019-01-08T00:01:45.708Z,79.33
2019-01-08T00:04:16.241Z,78.50
2019-01-08T00:06:46.841Z,78.87
2019-01-08T00:09:17.330Z,80.97
2019-01-08T00:11:48.012Z,77.33
2019-01-08T00:14:18.588Z,80.13
2019-01-08T00:16:49.132Z,72.20
2019-01-08T00:19:19.680Z,83.50
2019-01-08T00:21:50.158Z,82.13
2019-01-08T00:24:23.504Z,85.20
2019-01-08T00:26:54.086Z,82.37
2019-01-08T00:29:24.732Z,80.63
2019-01-08T00:31:55.202Z,76.70
2019-01-08T00:34:25.822Z,77.80
2019-01-08T00:36:56.379Z,80.57
2019-01-08T00:39:26.979Z,80.63
2019-01-08T00:41:57.518Z,79.47
2019-01-08T00:44:27.982Z,81.27
2019-01-08T00:46:58.480Z,78.10
2019-01-08T00:49:29.038Z,75.43
2019-01-08T00:51:59.632Z,71.30
2019-01-08T00:54:30.282Z,63.97
2019-01-08T00:57:00.882Z,63.77
2019-01-08T00:59:31.538Z,59.43
2019-01-08T01:02:02.018Z,60.03
2019-01-08T01:04:32.612Z,63.03
2019-01-08T01:07:03.189Z,57.30
2019-01-08T01:09:33.829Z,59.40
2019-01-08T01:12:04.543Z,53.50
2019-01-08T01:14:35.037Z,48.77
2019-01-08T01:17:05.591Z,45.93
2019-01-08T01:19:36.361Z,44.40
2019-01-08T01:22:06.909Z,44.67
2019-01-08T01:24:37.349Z,47.10
2019-01-08T01:27:07.936Z,43.17
2019-01-08T01:29:38.489Z,46.77
2019-01-08T01:32:09.198Z,41.57
2019-01-08T01:34:39.881Z,40.60
2019-01-08T01:37:10.395Z,35.30
2019-01-08T01:39:41.066Z,38.47
2019-01-08T01:42:11.980Z,35.33
2019-01-08T01:44:42.438Z,37.00
2019-01-08T01:47:12.979Z,36.97
2019-01-08T01:49:43.568Z,34.63
2019-01-08T01:52:14.129Z,33.87
2019-01-08T01:54:44.611Z,28.87
2019-01-08T01:57:15.123Z,32.43
2019-01-08T01:59:45.623Z,29.43
2019-01-08T02:02:16.180Z,29.53
2019-01-08T02:04:48.742Z,27.73
2019-01-08T02:07:19.398Z,26.50
2019-01-08T02:09:49.999Z,27.80
2019-01-08T02:12:20.502Z,27.03
2019-01-08T02:14:50.934Z,32.03
2019-01-08T02:17:21.664Z,25.60
2019-01-08T02:19:52.144Z,32.93
2019-01-08T02:22:22.613Z,28.83
2019-01-08T02:24:53.194Z,30.60
2019-01-08T02:27:24.037Z,30.10
2019-01-08T02:29:54.650Z,24.63
2019-01-08T02:32:25.227Z,23.93
2019-01-08T02:34:55.609Z,22.17
2019-01-08T02:37:26.159Z,23.23
2019-01-08T02:39:56.679Z,23.50
2019-01-08T02:42:27.416Z,22.83
2019-01-08T02:44:57.931Z,22.90
2019-01-08T02:47:28.471Z,24.90
2019-01-08T02:49:59.088Z,22.50
2019-01-08T02:52:29.571Z,22.60
2019-01-08T02:55:01.469Z,20.60
2019-01-08T02:57:32.004Z,21.23
2019-01-08T03:00:02.537Z,24.73
2019-01-08T03:02:33.053Z,23.83
2019-01-08T03:05:03.533Z,24.30
2019-01-08T03:07:34.208Z,21.47
2019-01-08T03:10:05.325Z,19.37
2019-01-08T03:12:35.859Z,18.83
2019-01-08T03:15:06.947Z,21.60
2019-01-08T03:17:37.513Z,22.77
2019-01-08T03:20:08.269Z,21.37
2019-01-08T03:22:38.898Z,17.40
2019-01-08T03:25:09.669Z,17.03
2019-01-08T03:27:40.254Z,17.97
2019-01-08T03:30:10.976Z,16.93
2019-01-08T03:32:41.739Z,16.57
2019-01-08T03:35:12.528Z,17.90
2019-01-08T03:37:43.878Z,16.87
2019-01-08T03:40:14.533Z,18.00
2019-01-08T03:42:45.136Z,16.10
2019-01-08T03:45:15.649Z,17.53
2019-01-08T03:47:46.345Z,15.73
2019-01-08T03:50:16.886Z,15.43
2019-01-08T03:52:47.566Z,13.43
2019-01-08T03:55:18.168Z,12.53
2019-01-08T03:57:48.868Z,12.17
2019-01-08T04:00:19.541Z,11.03
2019-01-08T04:02:50.128Z,10.83
2019-01-08T04:05:20.703Z,11.43
2019-01-08T04:07:51.293Z,10.03
2019-01-08T04:10:21.798Z,11.40
2019-01-08T04:12:52.428Z,11.87
2019-01-08T04:15:23.251Z,10.80
2019-01-08T04:17:53.853Z,9.80
2019-01-08T04:20:24.368Z,10.57
2019-01-08T04:22:55.349Z,10.97
2019-01-08T04:25:25.944Z,10.13
2019-01-08T04:27:57.239Z,10.27
2019-01-08T04:30:27.833Z,10.57
2019-01-08T04:32:58.434Z,10.20
2019-01-08T04:35:28.948Z,8.97
2019-01-08T04:37:59.528Z,9.57
2019-01-08T04:40:30.467Z,9.37
2019-01-08T04:43:01.196Z,9.33
2019-01-08T04:45:31.805Z,10.37
2019-01-08T04:48:02.385Z,9.60
2019-01-08T04:50:33.026Z,8.30
2019-01-08T04:53:03.650Z,8.57
2019-01-08T04:55:34.307Z,8.33
2019-01-08T04:58:04.900Z,9.20
2019-01-08T05:00:35.593Z,7.37
2019-01-08T05:03:06.134Z,7.60
2019-01-08T05:05:36.807Z,8.17
2019-01-08T05:08:07.411Z,7.73
2019-01-08T05:10:38.871Z,7.97
2019-01-08T05:13:10.019Z,6.67
2019-01-08T05:15:40.893Z,7.97
2019-01-08T05:18:11.849Z,6.20
2019-01-08T05:20:42.639Z,6.70
2019-01-08T05:23:13.439Z,6.23
2019-01-08T05:25:44.039Z,5.87
2019-01-08T05:28:14.749Z,6.13
2019-01-08T05:30:45.662Z,5.80
2019-01-08T05:33:16.191Z,6.73
2019-01-08T05:35:46.723Z,8.70
2019-01-08T05:38:17.283Z,9.33
2019-01-08T05:40:47.722Z,7.80
2019-01-08T05:43:18.356Z,8.07
2019-01-08T05:45:48.988Z,7.93
2019-01-08T05:48:23.197Z,7.97
2019-01-08T05:50:54.322Z,8.27
2019-01-08T05:53:25.041Z,7.97
2019-01-08T05:55:55.659Z,6.90
2019-01-08T05:58:26.138Z,6.83
2019-01-08T06:00:56.886Z,7.63
2019-01-08T06:03:27.568Z,8.00
2019-01-08T06:05:58.538Z,6.90
2019-01-08T06:08:29.217Z,7.30
2019-01-08T06:10:59.969Z,5.70
2019-01-08T06:13:30.581Z,5.43
2019-01-08T06:16:01.286Z,4.67
2019-01-08T06:18:31.977Z,3.70
2019-01-08T06:21:03.012Z,3.00
2019-01-08T06:23:33.644Z,2.53
2019-01-08T06:26:04.310Z,2.20
2019-01-08T06:28:34.902Z,2.23
2019-01-08T06:31:05.828Z,1.80
2019-01-08T06:33:36.298Z,2.47
2019-01-08T06:36:06.889Z,2.77
2019-01-08T06:38:37.434Z,2.30
2019-01-08T06:41:08.058Z,2.23
2019-01-08T06:43:38.862Z,0.90
2019-01-08T06:46:11.388Z,1.73
2019-01-08T06:48:45.806Z,1.90
2019-01-08T06:51:23.448Z,1.60
2019-01-08T06:53:56.630Z,2.00
2019-01-08T06:56:32.240Z,2.00
2019-01-08T06:59:03.963Z,2.03
2019-01-08T07:01:38.135Z,1.87
2019-01-08T07:04:08.910Z,2.07
2019-01-08T07:06:40.172Z,2.07
2019-01-08T07:09:12.669Z,1.70
2019-01-08T07:11:47.439Z,2.53
2019-01-08T07:14:21.632Z,2.40
2019-01-08T07:16:55.420Z,2.00
2019-01-08T07:19:25.926Z,2.80
2019-01-08T07:22:00.328Z,2.70
2019-01-08T07:24:34.229Z,2.03
2019-01-08T07:27:06.876Z,2.70
2019-01-08T07:29:37.468Z,2.43
2019-01-08T07:32:08.112Z,2.20
2019-01-08T07:34:38.753Z,1.93
2019-01-08T07:37:09.361Z,2.40
2019-01-08T07:39:39.894Z,2.40
2019-01-08T07:42:10.566Z,2.50
2019-01-08T07:44:41.179Z,2.57
2019-01-08T07:47:12.473Z,2.20
2019-01-08T07:49:43.537Z,2.10
2019-01-08T07:52:15.594Z,2.63
2019-01-08T07:54:47.597Z,2.70
2019-01-08T07:57:19.891Z,3.00
2019-01-08T07:59:50.588Z,2.90
2019-01-08T08:02:21.533Z,2.53
2019-01-08T08:04:52.222Z,3.20
2019-01-08T08:07:22.809Z,3.40
2019-01-08T08:09:53.373Z,3.00
2019-01-08T08:12:24.094Z,4.90
2019-01-08T08:14:55.575Z,5.80
2019-01-08T08:17:26.226Z,6.33
2019-01-08T08:19:56.907Z,8.93
2019-01-08T08:22:27.473Z,8.63
2019-01-08T08:24:58.043Z,5.80
2019-01-08T08:27:28.554Z,7.83
2019-01-08T08:29:59.003Z,5.50
2019-01-08T08:32:29.513Z,7.33
2019-01-08T08:35:07.888Z,12.13
2019-01-08T08:37:32.267Z,14.30
2019-01-08T08:40:02.974Z,13.73
2019-01-08T08:42:33.560Z,9.53
2019-01-08T08:45:04.291Z,6.97
2019-01-08T08:47:35.142Z,6.80
2019-01-08T08:50:06.721Z,7.47
2019-01-08T08:52:37.171Z,7.07
2019-01-08T08:55:08.049Z,5.50
2019-01-08T08:57:38.609Z,4.83
2019-01-08T09:00:10.314Z,5.67
2019-01-08T09:02:40.837Z,6.00
2019-01-08T09:05:11.361Z,6.90
2019-01-08T09:07:41.991Z,7.00
2019-01-08T09:10:12.516Z,6.97
2019-01-08T09:12:43.166Z,7.37
2019-01-08T09:15:13.931Z,9.37
2019-01-08T09:17:44.453Z,9.17
2019-01-08T09:20:14.889Z,8.63
2019-01-08T09:22:45.538Z,7.37
2019-01-08T09:25:16.053Z,8.23
2019-01-08T09:27:46.465Z,7.70
2019-01-08T09:30:17.127Z,8.93
2019-01-08T09:32:47.736Z,7.90
2019-01-08T09:35:18.261Z,7.73
2019-01-08T09:37:48.759Z,8.07
2019-01-08T09:40:19.407Z,7.43
2019-01-08T09:42:49.907Z,6.53
2019-01-08T09:45:20.638Z,7.90
2019-01-08T09:47:51.351Z,8.27
2019-01-08T09:50:21.910Z,6.70
2019-01-08T09:52:52.627Z,6.10
2019-01-08T09:55:23.213Z,6.53
2019-01-08T09:57:53.732Z,7.30
2019-01-08T10:00:24.373Z,6.67
2019-01-08T10:02:54.880Z,5.27
2019-01-08T10:05:25.480Z,4.20
2019-01-08T10:07:56.030Z,3.77
2019-01-08T10:10:26.579Z,3.73
2019-01-08T10:12:57.470Z,6.87
2019-01-08T10:15:27.998Z,10.57
2019-01-08T10:17:58.929Z,8.10
2019-01-08T10:20:29.643Z,8.10
2019-01-08T10:23:00.198Z,5.47
2019-01-08T10:25:30.771Z,4.83
2019-01-08T10:28:01.262Z,4.40
2019-01-08T10:30:31.781Z,7.20
2019-01-08T10:33:02.431Z,7.33
2019-01-08T10:35:33.055Z,5.33
2019-01-08T10:38:03.592Z,3.67
2019-01-08T10:40:34.222Z,1.80
2019-01-08T10:43:05.044Z,2.00
2019-01-08T10:45:35.733Z,1.70
2019-01-08T10:48:06.348Z,1.70
2019-01-08T10:50:37.010Z,1.93
2019-01-08T10:53:07.775Z,1.70
2019-01-08T10:55:38.442Z,1.83
2019-01-08T10:58:09.042Z,1.90
2019-01-08T11:00:39.737Z,1.70
2019-01-08T11:03:10.257Z,1.90
2019-01-08T11:05:40.953Z,1.47
2019-01-08T11:08:18.627Z,2.00
2019-01-08T11:10:49.312Z,2.27
2019-01-08T11:13:20.464Z,2.60
2019-01-08T11:15:51.218Z,2.20
2019-01-08T11:18:21.921Z,2.40
2019-01-08T11:20:52.591Z,2.93
2019-01-08T11:23:23.187Z,2.90
2019-01-08T11:25:54.082Z,2.43
2019-01-08T11:28:24.769Z,3.30
2019-01-08T11:30:55.334Z,2.77
2019-01-08T11:33:25.854Z,3.10
2019-01-08T11:35:56.486Z,3.57
2019-01-08T11:38:27.151Z,3.60
2019-01-08T11:40:57.653Z,3.50
2019-01-08T11:43:28.541Z,3.20
2019-01-08T11:45:58.992Z,3.80
2019-01-08T11:48:29.771Z,4.00
2019-01-08T11:51:00.407Z,3.80
2019-01-08T11:53:30.784Z,3.83
2019-01-08T11:56:01.236Z,2.87
2019-01-08T11:58:31.873Z,3.43
2019-01-08T12:01:02.548Z,3.60
2019-01-08T12:03:33.060Z,3.60
2019-01-08T12:06:03.687Z,4.10
2019-01-08T12:08:34.302Z,4.60
2019-01-08T12:11:05.544Z,4.30
2019-01-08T12:13:36.139Z,4.33
2019-01-08T12:16:06.622Z,4.40
2019-01-08T12:18:37.220Z,3.40
2019-01-08T12:21:09.524Z,4.50
2019-01-08T12:23:40.149Z,3.37
2019-01-08T12:26:10.877Z,3.87
2019-01-08T12:28:41.510Z,3.50
2019-01-08T12:31:12.169Z,3.30
2019-01-08T12:33:42.792Z,3.13
2019-01-08T12:36:13.369Z,3.50
2019-01-08T12:38:43.969Z,3.87
2019-01-08T12:41:14.493Z,3.13
2019-01-08T12:43:45.083Z,3.67
2019-01-08T12:46:15.686Z,3.93
2019-01-08T12:48:46.218Z,3.00
2019-01-08T12:51:16.877Z,3.17
2019-01-08T12:53:47.530Z,2.30
2019-01-08T12:56:18.177Z,2.97
2019-01-08T12:58:49.023Z,3.87
2019-01-08T13:01:21.028Z,3.17
2019-01-08T13:03:51.954Z,3.70
2019-01-08T13:06:22.512Z,3.60
2019-01-08T13:08:53.023Z,3.67
2019-01-08T13:11:23.685Z,3.50
2019-01-08T13:13:54.279Z,3.63
2019-01-08T13:16:24.940Z,4.23
2019-01-08T13:18:57.313Z,4.57
2019-01-08T13:21:27.950Z,4.47
2019-01-08T13:23:58.542Z,4.80
2019-01-08T13:26:29.080Z,5.30
2019-01-08T13:28:59.656Z,4.50
2019-01-08T13:31:30.217Z,5.47
2019-01-08T13:34:00.811Z,12.20
2019-01-08T13:36:31.425Z,11.30
2019-01-08T13:39:02.108Z,13.37
2019-01-08T13:41:32.727Z,12.57
2019-01-08T13:44:03.505Z,14.97
2019-01-08T13:46:34.257Z,13.20
2019-01-08T13:49:04.953Z,9.13
2019-01-08T13:51:35.580Z,9.23
2019-01-08T13:54:09.490Z,8.73
2019-01-08T13:56:40.275Z,9.60
2019-01-08T13:59:14.981Z,5.07
2019-01-08T14:01:51.592Z,6.27
2019-01-08T14:04:25.253Z,7.27
2019-01-08T14:06:59.706Z,5.70
2019-01-08T14:09:31.962Z,6.10
2019-01-08T14:12:05.792Z,8.40
2019-01-08T14:14:40.072Z,7.20
2019-01-08T14:17:15.937Z,3.43
2019-01-08T14:19:47.372Z,5.47
2019-01-08T14:22:25.995Z,3.97
2019-01-08T14:24:56.616Z,3.60
2019-01-08T14:27:27.308Z,2.63
2019-01-08T14:29:58.031Z,1.47
2019-01-08T14:32:31.144Z,1.90
2019-01-08T14:35:03.818Z,1.33
2019-01-08T14:37:40.379Z,1.33
2019-01-08T14:40:20.234Z,1.27
2019-01-08T14:42:50.961Z,1.60
2019-01-08T14:45:22.983Z,4.80
2019-01-08T14:47:55.145Z,3.77
2019-01-08T14:50:28.547Z,2.30
2019-01-08T14:53:06.896Z,1.60
2019-01-08T14:55:39.845Z,2.43
2019-01-08T14:58:10.491Z,2.80
2019-01-08T15:00:41.315Z,2.47
2019-01-08T15:03:12.091Z,3.13
2019-01-08T15:05:42.867Z,2.70
2019-01-08T15:08:13.493Z,4.03
2019-01-08T15:10:44.268Z,4.30
2019-01-08T15:13:15.044Z,3.00
2019-01-08T15:15:45.741Z,3.83
2019-01-08T15:18:20.053Z,3.60
2019-01-08T15:20:53.808Z,3.20
2019-01-08T15:23:24.462Z,4.30
2019-01-08T15:25:55.079Z,3.53
2019-01-08T15:28:25.912Z,3.63
2019-01-08T15:30:56.713Z,3.80
2019-01-08T15:33:27.279Z,4.10
2019-01-08T15:35:57.891Z,3.80
2019-01-08T15:38:28.589Z,4.10
2019-01-08T15:40:59.169Z,5.50
2019-01-08T15:43:29.798Z,5.77
2019-01-08T15:46:00.782Z,4.60
2019-01-08T15:48:31.400Z,5.37
2019-01-08T15:51:02.122Z,5.90
2019-01-08T15:53:32.862Z,5.33
2019-01-08T15:56:03.654Z,6.70
2019-01-08T15:58:34.379Z,7.17
2019-01-08T16:01:05.028Z,5.20
2019-01-08T16:03:35.620Z,6.47
2019-01-08T16:06:12.603Z,7.20
2019-01-08T16:08:43.362Z,7.77
2019-01-08T16:11:14.070Z,6.03
2019-01-08T16:13:44.723Z,8.40
2019-01-08T16:16:16.443Z,8.27
2019-01-08T16:18:47.198Z,6.27
2019-01-08T16:21:18.151Z,7.30
2019-01-08T16:23:48.725Z,6.80
2019-01-08T16:26:19.290Z,7.47
2019-01-08T16:28:49.983Z,9.60
2019-01-08T16:31:20.627Z,9.00
2019-01-08T16:33:51.539Z,9.83
2019-01-08T16:36:25.334Z,11.10
2019-01-08T16:38:55.852Z,9.40
2019-01-08T16:41:26.493Z,9.70
2019-01-08T16:43:58.575Z,10.63
2019-01-08T16:46:32.768Z,7.20
2019-01-08T16:49:03.408Z,14.60
2019-01-08T16:51:34.096Z,9.77
2019-01-08T16:54:04.985Z,6.80
2019-01-08T16:56:35.718Z,10.37
2019-01-08T16:59:06.492Z,6.10
2019-01-08T17:01:37.210Z,8.10
2019-01-08T17:04:09.513Z,7.13
2019-01-08T17:06:40.394Z,6.47
2019-01-08T17:09:11.119Z,9.03
2019-01-08T17:11:41.858Z,5.60
2019-01-08T17:14:12.627Z,8.63
2019-01-08T17:16:43.351Z,5.80
2019-01-08T17:19:14.057Z,8.07
2019-01-08T17:21:44.741Z,7.23
2019-01-08T17:24:15.649Z,11.30
2019-01-08T17:26:46.372Z,6.23
2019-01-08T17:29:17.047Z,9.33
2019-01-08T17:31:48.924Z,9.30
2019-01-08T17:34:19.679Z,4.33
2019-01-08T17:36:50.356Z,3.57
2019-01-08T17:39:20.846Z,3.70
2019-01-08T17:41:51.699Z,5.13
2019-01-08T17:44:22.444Z,6.50
2019-01-08T17:46:59.477Z,4.00
2019-01-08T17:49:31.196Z,5.33
2019-01-08T17:52:05.066Z,6.37
2019-01-08T17:54:39.985Z,4.20
2019-01-08T17:57:10.724Z,7.43
2019-01-08T17:59:41.557Z,4.93
2019-01-08T18:02:17.583Z,4.40
2019-01-08T18:04:49.250Z,4.63
2019-01-08T18:07:19.974Z,5.40
2019-01-08T18:09:51.504Z,5.13
2019-01-08T18:12:22.640Z,5.20
2019-01-08T18:15:00.726Z,6.57
2019-01-08T18:17:32.487Z,5.47
2019-01-08T18:20:04.424Z,5.17
2019-01-08T18:22:38.389Z,4.47
2019-01-08T18:25:10.674Z,5.33
2019-01-08T18:27:42.655Z,6.33
2019-01-08T18:30:13.790Z,5.07
2019-01-08T18:32:45.514Z,5.53
2019-01-08T18:35:16.419Z,5.97
2019-01-08T18:37:53.651Z,6.20
2019-01-08T18:40:24.203Z,9.20
2019-01-08T18:42:59.936Z,9.13
2019-01-08T18:45:33.073Z,10.30
2019-01-08T18:48:05.040Z,10.27
2019-01-08T18:50:36.010Z,19.67
2019-01-08T18:53:07.808Z,20.53
2019-01-08T18:55:40.709Z,24.60
2019-01-08T18:58:15.419Z,32.10
2019-01-08T19:00:46.297Z,11.43
2019-01-08T19:03:18.216Z,9.73
2019-01-08T19:05:52.717Z,8.83
2019-01-08T19:08:26.329Z,8.80
2019-01-08T19:10:59.119Z,8.87
2019-01-08T19:13:31.025Z,8.97
2019-01-08T19:16:05.391Z,10.23
2019-01-08T19:18:40.666Z,11.73
2019-01-08T19:21:13.795Z,8.87
2019-01-08T19:23:47.763Z,9.90
2019-01-08T19:26:22.133Z,10.07
2019-01-08T19:28:54.346Z,10.30
2019-01-08T19:31:27.799Z,12.00
2019-01-08T19:34:08.991Z,11.27
2019-01-08T19:36:38.055Z,18.67
2019-01-08T19:39:14.302Z,20.07
2019-01-08T19:41:47.491Z,23.77
2019-01-08T19:44:20.398Z,10.37
2019-01-08T19:46:52.469Z,9.67
2019-01-08T19:49:29.779Z,9.00
2019-01-08T19:52:00.999Z,9.13
2019-01-08T19:54:35.224Z,10.67
2019-01-08T19:57:09.624Z,10.43
2019-01-08T19:59:40.803Z,10.43
2019-01-08T20:02:16.017Z,9.53
2019-01-08T20:04:51.393Z,8.90
2019-01-08T20:07:23.462Z,10.30
2019-01-08T20:09:58.510Z,11.03
2019-01-08T20:12:30.408Z,9.40
2019-01-08T20:15:12.792Z,11.90
2019-01-08T20:17:48.138Z,10.33
2019-01-08T20:20:20.139Z,10.43
2019-01-08T20:22:54.130Z,13.20
2019-01-08T20:25:25.979Z,23.23
2019-01-08T20:28:00.400Z,13.23
2019-01-08T20:30:34.783Z,12.63
2019-01-08T20:33:08.803Z,18.33
2019-01-08T20:35:39.598Z,12.83
2019-01-08T20:38:10.495Z,12.90
2019-01-08T20:40:48.968Z,13.03
2019-01-08T20:43:20.961Z,13.33
2019-01-08T20:45:53.185Z,14.93
2019-01-08T20:48:33.419Z,16.27
2019-01-08T20:51:05.394Z,13.77
2019-01-08T20:53:38.321Z,13.97
2019-01-08T20:56:09.132Z,13.40
2019-01-08T20:58:43.103Z,14.33
2019-01-08T21:01:19.793Z,15.67
2019-01-08T21:03:51.701Z,14.43
2019-01-08T21:06:27.309Z,13.50
2019-01-08T21:09:00.621Z,14.73
2019-01-08T21:11:35.111Z,12.67
2019-01-08T21:14:10.043Z,11.67
2019-01-08T21:16:48.068Z,10.93
2019-01-08T21:19:19.951Z,10.13
2019-01-08T21:21:53.800Z,10.30
2019-01-08T21:24:28.924Z,9.33
2019-01-08T21:27:04.047Z,9.30
2019-01-08T21:29:38.204Z,10.93
2019-01-08T21:32:09.947Z,9.33
2019-01-08T21:34:44.598Z,8.70
2019-01-08T21:37:15.435Z,8.90
2019-01-08T21:39:48.000Z,8.90
2019-01-08T21:42:19.000Z,9.27
2019-01-08T21:44:49.800Z,9.07
2019-01-08T21:47:25.838Z,10.63
2019-01-08T21:50:03.204Z,11.97
2019-01-08T21:52:33.985Z,18.97
2019-01-08T21:55:11.629Z,12.13
2019-01-08T21:57:45.009Z,14.87
2019-01-08T22:00:18.879Z,21.40
2019-01-08T22:02:50.083Z,22.90
2019-01-08T22:05:20.841Z,9.83
2019-01-08T22:07:52.079Z,8.37
2019-01-08T22:10:22.852Z,5.20
2019-01-08T22:12:53.931Z,6.23
2019-01-08T22:15:24.711Z,6.00
2019-01-08T22:17:55.555Z,6.33
2019-01-08T22:20:26.290Z,5.47
2019-01-08T22:22:56.992Z,5.97
2019-01-08T22:25:28.074Z,5.57
2019-01-08T22:27:58.873Z,4.20
2019-01-08T22:30:29.469Z,5.57
2019-01-08T22:33:00.220Z,4.43
2019-01-08T22:35:30.940Z,4.43
2019-01-08T22:38:01.637Z,4.67
2019-01-08T22:40:32.334Z,4.43
2019-01-08T22:43:03.122Z,4.17
2019-01-08T22:45:33.833Z,4.63
2019-01-08T22:48:04.599Z,3.27
2019-01-08T22:50:35.382Z,4.00
2019-01-08T22:53:05.991Z,5.43
2019-01-08T22:55:36.764Z,4.77
2019-01-08T22:58:07.419Z,4.27
2019-01-08T23:00:57.509Z,4.47
2019-01-08T23:03:28.231Z,6.80
2019-01-08T23:05:58.849Z,5.77
2019-01-08T23:08:29.637Z,6.70
2019-01-08T23:11:00.250Z,6.07
2019-01-08T23:13:31.919Z,6.20
2019-01-08T23:16:02.958Z,7.53
2019-01-08T23:18:33.593Z,6.97
2019-01-08T23:21:04.316Z,7.90
2019-01-08T23:23:34.983Z,5.83
2019-01-08T23:26:05.606Z,8.27
2019-01-08T23:28:37.989Z,5.53
2019-01-08T23:31:08.589Z,4.43
2019-01-08T23:33:39.278Z,3.83
2019-01-08T23:36:10.069Z,2.63
2019-01-08T23:38:40.670Z,2.77
2019-01-08T23:41:11.348Z,2.90
2019-01-08T23:43:41.968Z,1.90
2019-01-08T23:46:12.496Z,2.37
2019-01-08T23:48:43.209Z,2.20
2019-01-08T23:51:13.822Z,2.33
2019-01-08T23:53:49.867Z,3.07
2019-01-08T23:56:20.661Z,3.33
2019-01-08T23:58:51.506Z,3.10
